createdAt,value
2023-02-13T00:00:46.568Z,20.07
2023-02-13T00:03:15.710Z,23.43
2023-02-13T00:05:43.723Z,24.00
2023-02-13T00:08:11.977Z,18.27
2023-02-13T00:10:41.486Z,22.40
2023-02-13T00:13:09.690Z,20.87
2023-02-13T00:15:37.839Z,16.90
2023-02-13T00:18:06.588Z,31.43
2023-02-13T00:20:34.789Z,23.10
2023-02-13T00:23:02.794Z,19.90
2023-02-13T00:25:30.851Z,23.43
2023-02-13T00:28:00.453Z,19.60
2023-02-13T00:30:28.818Z,18.50
2023-02-13T00:32:56.956Z,21.87
2023-02-13T00:35:26.202Z,21.13
2023-02-13T00:37:54.387Z,21.10
2023-02-13T00:40:25.941Z,23.70
2023-02-13T00:42:54.080Z,21.10
2023-02-13T00:45:23.652Z,18.00
2023-02-13T00:47:51.806Z,23.80
2023-02-13T00:50:22.227Z,22.87
2023-02-13T00:52:50.248Z,22.90
2023-02-13T00:55:18.467Z,22.70
2023-02-13T00:57:46.602Z,18.63
2023-02-13T01:00:16.057Z,22.60
2023-02-13T01:02:45.505Z,21.23
2023-02-13T01:05:13.620Z,24.10
2023-02-13T01:07:41.689Z,25.07
2023-02-13T01:10:10.108Z,24.63
2023-02-13T01:12:38.480Z,24.70
2023-02-13T01:15:08.875Z,23.87
2023-02-13T01:17:39.687Z,23.83
2023-02-13T01:20:11.305Z,26.30
2023-02-13T01:22:39.650Z,23.50
2023-02-13T01:25:08.694Z,23.97
2023-02-13T01:27:38.070Z,21.47
2023-02-13T01:30:10.538Z,22.60
2023-02-13T01:32:39.086Z,22.47
2023-02-13T01:35:09.423Z,18.87
2023-02-13T01:37:38.976Z,19.73
2023-02-13T01:40:09.040Z,25.00
2023-02-13T01:42:37.086Z,22.03
2023-02-13T01:45:06.956Z,18.57
2023-02-13T01:47:41.259Z,19.33
2023-02-13T01:50:17.524Z,23.40
2023-02-13T01:52:50.511Z,18.50
2023-02-13T01:55:19.563Z,20.80
2023-02-13T01:57:54.187Z,16.30
2023-02-13T02:00:23.003Z,20.20
2023-02-13T02:02:55.295Z,20.90
2023-02-13T02:05:29.920Z,18.53
2023-02-13T02:08:01.251Z,21.67
2023-02-13T02:10:29.472Z,22.50
2023-02-13T02:13:04.380Z,18.50
2023-02-13T02:15:32.855Z,22.30
2023-02-13T02:18:01.096Z,20.90
2023-02-13T02:20:55.765Z,18.23
2023-02-13T02:24:01.900Z,15.63
2023-02-13T02:27:10.114Z,18.10
2023-02-13T02:30:12.900Z,19.70
2023-02-13T02:32:57.172Z,17.23
2023-02-13T02:35:34.677Z,17.00
2023-02-13T02:38:27.149Z,18.90
2023-02-13T02:41:04.888Z,21.60
2023-02-13T02:43:50.614Z,19.60
2023-02-13T02:46:26.350Z,27.13
2023-02-13T02:49:22.603Z,30.47
2023-02-13T02:52:04.497Z,32.20
2023-02-13T02:54:57.694Z,32.23
2023-02-13T02:57:51.572Z,30.77
2023-02-13T03:00:42.525Z,22.50
2023-02-13T03:03:35.495Z,28.77
2023-02-13T03:06:14.104Z,16.30
2023-02-13T03:09:02.004Z,17.07
2023-02-13T03:11:47.638Z,18.50
2023-02-13T03:14:20.346Z,17.13
2023-02-13T03:17:07.039Z,19.57
2023-02-13T03:20:02.356Z,15.97
2023-02-13T03:22:40.895Z,16.00
2023-02-13T03:25:18.538Z,19.23
2023-02-13T03:28:09.607Z,19.80
2023-02-13T03:30:46.947Z,20.80
2023-02-13T03:33:40.399Z,25.40
2023-02-13T03:36:36.296Z,17.60
2023-02-13T03:39:10.425Z,35.70
2023-02-13T03:41:43.949Z,26.43
2023-02-13T03:44:17.710Z,14.27
2023-02-13T03:46:49.101Z,22.60
2023-02-13T03:49:40.522Z,26.80
2023-02-13T03:52:14.815Z,16.13
2023-02-13T03:55:06.606Z,22.47
2023-02-13T03:57:55.277Z,22.97
2023-02-13T04:00:25.841Z,17.90
2023-02-13T04:03:01.991Z,36.37
2023-02-13T04:05:33.411Z,30.40
2023-02-13T04:08:01.465Z,32.37
2023-02-13T04:10:35.291Z,22.90
2023-02-13T04:13:11.057Z,16.67
2023-02-13T04:15:44.318Z,19.83
2023-02-13T04:18:16.683Z,24.13
2023-02-13T04:20:44.946Z,19.90
2023-02-13T04:23:14.040Z,16.20
2023-02-13T04:25:47.973Z,14.17
2023-02-13T04:28:16.429Z,17.13
2023-02-13T04:30:44.730Z,14.00
2023-02-13T04:33:12.886Z,19.13
2023-02-13T04:35:40.901Z,17.53
2023-02-13T04:38:09.115Z,20.63
2023-02-13T04:40:37.168Z,17.40
2023-02-13T04:43:06.572Z,21.47
2023-02-13T04:45:34.674Z,16.97
2023-02-13T04:48:02.768Z,19.77
2023-02-13T04:50:30.883Z,19.07
2023-02-13T04:52:59.756Z,18.53
2023-02-13T04:55:29.305Z,21.83
2023-02-13T04:57:58.071Z,14.13
2023-02-13T05:00:29.713Z,17.50
2023-02-13T05:03:05.264Z,18.37
2023-02-13T05:05:33.279Z,15.90
2023-02-13T05:08:01.492Z,13.70
2023-02-13T05:10:30.111Z,18.20
2023-02-13T05:12:58.666Z,15.70
2023-02-13T05:15:52.633Z,15.40
2023-02-13T05:18:20.731Z,12.17
2023-02-13T05:21:09.540Z,15.73
2023-02-13T05:23:36.619Z,15.63
2023-02-13T05:26:05.241Z,13.67
2023-02-13T05:28:50.722Z,14.83
2023-02-13T05:31:25.681Z,16.77
2023-02-13T05:33:53.796Z,17.43
2023-02-13T05:36:22.000Z,16.93
2023-02-13T05:38:50.009Z,16.13
2023-02-13T05:41:18.113Z,22.70
2023-02-13T05:43:46.185Z,16.60
2023-02-13T05:46:14.322Z,18.60
2023-02-13T05:48:43.813Z,17.47
2023-02-13T05:51:12.228Z,21.17
2023-02-13T05:53:40.296Z,22.43
2023-02-13T05:56:08.995Z,16.83
2023-02-13T05:58:37.093Z,18.73
2023-02-13T06:01:05.414Z,19.73
2023-02-13T06:03:34.239Z,25.73
2023-02-13T06:06:03.871Z,32.10
2023-02-13T06:08:32.014Z,23.90
2023-02-13T06:11:00.566Z,16.97
2023-02-13T06:13:28.984Z,22.17
2023-02-13T06:15:57.120Z,19.83
2023-02-13T06:18:25.806Z,19.83
2023-02-13T06:20:53.864Z,18.63
2023-02-13T06:23:23.264Z,21.70
2023-02-13T06:25:51.442Z,17.80
2023-02-13T06:28:19.581Z,18.50
2023-02-13T06:30:48.986Z,16.73
2023-02-13T06:33:17.097Z,19.60
2023-02-13T06:35:45.356Z,16.73
2023-02-13T06:38:13.461Z,19.00
2023-02-13T06:40:43.114Z,15.93
2023-02-13T06:43:11.173Z,18.07
2023-02-13T06:45:39.201Z,18.80
2023-02-13T06:48:07.896Z,19.33
2023-02-13T06:50:36.312Z,17.77
2023-02-13T06:53:04.582Z,23.97
2023-02-13T06:55:32.597Z,40.97
2023-02-13T06:58:02.194Z,31.90
2023-02-13T07:00:30.291Z,23.03
2023-02-13T07:03:03.401Z,19.60
2023-02-13T07:05:31.569Z,20.77
2023-02-13T07:07:59.839Z,23.37
2023-02-13T07:10:28.144Z,18.43
2023-02-13T07:13:05.459Z,24.70
2023-02-13T07:15:37.093Z,18.90
2023-02-13T07:18:05.965Z,18.33
2023-02-13T07:20:34.533Z,23.03
2023-02-13T07:23:04.510Z,19.40
2023-02-13T07:25:33.296Z,21.10
2023-02-13T07:28:03.408Z,67.97
2023-02-13T07:30:32.337Z,23.53
2023-02-13T07:33:03.352Z,29.23
2023-02-13T07:35:32.018Z,18.73
2023-02-13T07:38:00.511Z,20.83
2023-02-13T07:40:28.762Z,19.50
2023-02-13T07:42:56.980Z,18.77
2023-02-13T07:45:49.673Z,18.30
2023-02-13T07:48:19.244Z,19.87
2023-02-13T07:50:47.264Z,19.47
2023-02-13T07:53:15.384Z,18.13
2023-02-13T07:55:43.495Z,18.27
2023-02-13T07:58:11.771Z,17.73
2023-02-13T08:00:39.886Z,18.20
2023-02-13T08:03:08.054Z,17.73
2023-02-13T08:05:38.729Z,17.53
2023-02-13T08:08:06.775Z,17.17
2023-02-13T08:10:52.499Z,16.37
2023-02-13T08:13:20.758Z,15.77
2023-02-13T08:15:48.864Z,17.93
2023-02-13T08:18:21.268Z,18.07
2023-02-13T08:20:50.890Z,18.17
2023-02-13T08:23:19.076Z,18.53
2023-02-13T08:25:47.738Z,16.50
2023-02-13T08:28:15.862Z,19.33
2023-02-13T08:30:43.925Z,13.63
2023-02-13T08:33:12.083Z,17.50
2023-02-13T08:35:40.182Z,19.10
2023-02-13T08:38:10.833Z,17.87
2023-02-13T08:40:39.059Z,18.13
2023-02-13T08:43:08.469Z,14.67
2023-02-13T08:45:37.904Z,18.60
2023-02-13T08:48:07.517Z,16.87
2023-02-13T08:50:37.020Z,16.93
2023-02-13T08:53:06.286Z,17.87
2023-02-13T08:55:35.710Z,17.33
2023-02-13T08:58:04.898Z,16.03
2023-02-13T09:00:33.863Z,17.33
2023-02-13T09:03:03.176Z,17.17
2023-02-13T09:05:32.648Z,15.13
2023-02-13T09:08:02.820Z,19.90
2023-02-13T09:10:31.749Z,18.33
2023-02-13T09:13:02.091Z,15.90
2023-02-13T09:15:30.368Z,14.27
2023-02-13T09:17:58.912Z,16.07
2023-02-13T09:20:30.892Z,17.27
2023-02-13T09:22:59.227Z,16.67
2023-02-13T09:25:27.513Z,17.27
2023-02-13T09:27:55.668Z,17.30
2023-02-13T09:30:25.320Z,15.07
2023-02-13T09:32:54.871Z,17.90
2023-02-13T09:35:23.888Z,16.97
2023-02-13T09:37:52.012Z,16.13
2023-02-13T09:40:26.156Z,17.50
2023-02-13T09:42:56.173Z,19.40
2023-02-13T09:45:25.870Z,20.03
2023-02-13T09:47:53.961Z,21.33
2023-02-13T09:50:25.413Z,19.43
2023-02-13T09:52:55.683Z,22.67
2023-02-13T09:55:30.116Z,17.83
2023-02-13T09:58:05.840Z,18.67
2023-02-13T10:00:40.246Z,17.43
2023-02-13T10:03:22.704Z,19.17
2023-02-13T10:06:09.081Z,15.00
2023-02-13T10:09:02.386Z,18.00
2023-02-13T10:11:43.978Z,24.00
2023-02-13T10:14:17.959Z,20.67
2023-02-13T10:16:52.043Z,30.30
2023-02-13T10:19:37.140Z,21.30
2023-02-13T10:22:11.097Z,19.67
2023-02-13T10:24:45.036Z,18.40
2023-02-13T10:27:22.380Z,17.80
2023-02-13T10:30:12.751Z,21.47
2023-02-13T10:32:51.982Z,19.73
2023-02-13T10:35:28.324Z,33.83
2023-02-13T10:37:59.527Z,18.13
2023-02-13T10:40:33.844Z,25.30
2023-02-13T10:43:08.579Z,26.40
2023-02-13T10:45:57.014Z,23.10
2023-02-13T10:48:42.915Z,19.33
2023-02-13T10:51:18.155Z,22.00
2023-02-13T10:54:00.427Z,18.00
2023-02-13T10:56:33.009Z,18.40
2023-02-13T10:59:10.637Z,18.40
2023-02-13T11:01:46.523Z,17.00
2023-02-13T11:04:19.648Z,18.53
2023-02-13T11:06:53.717Z,17.23
2023-02-13T11:09:21.885Z,16.63
2023-02-13T11:11:50.215Z,15.53
2023-02-13T11:14:20.487Z,16.43
2023-02-13T11:16:57.594Z,18.30
2023-02-13T11:19:32.593Z,17.00
2023-02-13T11:22:05.555Z,18.23
2023-02-13T11:24:34.638Z,17.60
2023-02-13T11:27:08.698Z,18.93
2023-02-13T11:29:38.822Z,18.70
2023-02-13T11:32:21.072Z,19.80
2023-02-13T11:34:51.869Z,14.33
2023-02-13T11:37:23.381Z,18.13
2023-02-13T11:39:52.930Z,18.70
2023-02-13T11:42:33.206Z,20.40
2023-02-13T11:45:03.786Z,16.90
2023-02-13T11:47:38.235Z,15.17
2023-02-13T11:50:22.482Z,18.90
2023-02-13T11:52:57.347Z,16.30
2023-02-13T11:55:32.310Z,17.80
2023-02-13T11:58:02.881Z,18.40
2023-02-13T12:00:37.645Z,15.90
2023-02-13T12:03:28.944Z,14.67
2023-02-13T12:06:08.091Z,15.80
2023-02-13T12:08:38.291Z,16.20
2023-02-13T12:11:18.053Z,16.57
2023-02-13T12:13:46.895Z,18.13
2023-02-13T12:16:22.538Z,17.87
2023-02-13T12:18:54.930Z,18.10
2023-02-13T12:21:41.900Z,17.53
2023-02-13T12:24:15.782Z,18.87
2023-02-13T12:26:46.437Z,20.00
2023-02-13T12:29:27.350Z,18.73
2023-02-13T12:32:05.587Z,15.67
2023-02-13T12:35:17.810Z,17.70
2023-02-13T12:37:59.057Z,17.63
2023-02-13T12:40:58.157Z,16.57
2023-02-13T12:43:43.192Z,19.27
2023-02-13T12:46:18.609Z,17.00
2023-02-13T12:48:54.046Z,15.63
2023-02-13T12:51:38.989Z,15.57
2023-02-13T12:54:33.255Z,16.93
2023-02-13T12:57:14.378Z,16.50
2023-02-13T12:59:57.971Z,15.60
2023-02-13T13:02:45.508Z,19.27
2023-02-13T13:05:30.012Z,17.47
2023-02-13T13:08:14.657Z,18.40
2023-02-13T13:10:58.698Z,19.50
2023-02-13T13:13:39.611Z,16.80
2023-02-13T13:16:14.659Z,16.10
2023-02-13T13:18:56.262Z,17.80
2023-02-13T13:21:34.783Z,18.30
2023-02-13T13:24:10.906Z,21.67
2023-02-13T13:26:44.101Z,18.10
2023-02-13T13:29:16.850Z,16.10
2023-02-13T13:31:50.645Z,17.37
2023-02-13T13:34:24.142Z,19.33
2023-02-13T13:37:00.304Z,15.87
2023-02-13T13:39:42.111Z,15.60
2023-02-13T13:42:18.029Z,16.03
2023-02-13T13:45:05.244Z,17.17
2023-02-13T13:47:47.091Z,16.43
2023-02-13T13:50:22.385Z,20.17
2023-02-13T13:53:12.805Z,19.80
2023-02-13T13:56:00.482Z,18.70
2023-02-13T13:58:37.021Z,17.87
2023-02-13T14:01:30.730Z,20.70
2023-02-13T14:04:02.218Z,18.00
2023-02-13T14:06:48.414Z,19.30
2023-02-13T14:09:40.304Z,19.30
2023-02-13T14:12:46.510Z,16.00
2023-02-13T14:15:50.248Z,21.00
2023-02-13T14:18:24.870Z,17.47
2023-02-13T14:20:55.943Z,19.03
2023-02-13T14:23:57.284Z,19.97
2023-02-13T14:26:40.266Z,20.83
2023-02-13T14:29:35.499Z,18.00
2023-02-13T14:32:19.764Z,17.50
2023-02-13T14:34:58.746Z,16.30
2023-02-13T14:37:36.642Z,16.90
2023-02-13T14:40:30.119Z,18.07
2023-02-13T14:43:01.952Z,18.30
2023-02-13T14:45:33.723Z,18.00
2023-02-13T14:48:09.083Z,18.03
2023-02-13T14:50:46.966Z,18.23
2023-02-13T14:53:22.815Z,19.83
2023-02-13T14:55:58.076Z,19.13
2023-02-13T14:58:29.751Z,16.07
2023-02-13T15:01:03.660Z,17.67
2023-02-13T15:03:39.053Z,15.53
2023-02-13T15:06:15.242Z,15.90
2023-02-13T15:08:48.926Z,18.20
2023-02-13T15:11:39.080Z,15.63
2023-02-13T15:14:25.655Z,15.70
2023-02-13T15:17:00.627Z,15.30
2023-02-13T15:19:29.333Z,20.97
2023-02-13T15:22:01.952Z,21.70
2023-02-13T15:24:36.224Z,16.90
2023-02-13T15:27:06.278Z,18.23
2023-02-13T15:29:48.841Z,19.40
2023-02-13T15:32:22.346Z,19.67
2023-02-13T15:34:50.651Z,18.30
2023-02-13T15:37:25.577Z,21.03
2023-02-13T15:39:53.628Z,17.30
2023-02-13T15:42:21.975Z,18.80
2023-02-13T15:44:55.224Z,23.00
2023-02-13T15:47:30.663Z,22.83
2023-02-13T15:49:59.190Z,19.53
2023-02-13T15:52:32.917Z,21.60
2023-02-13T15:55:01.539Z,18.43
2023-02-13T15:57:30.492Z,18.77
2023-02-13T16:00:01.374Z,16.87
2023-02-13T16:02:39.541Z,17.93
2023-02-13T16:05:08.957Z,18.37
2023-02-13T16:07:50.934Z,19.00
2023-02-13T16:10:26.451Z,15.93
2023-02-13T16:12:55.466Z,18.77
2023-02-13T16:15:25.670Z,18.57
2023-02-13T16:17:53.817Z,15.70
2023-02-13T16:20:25.382Z,18.90
2023-02-13T16:22:59.139Z,17.83
2023-02-13T16:25:31.612Z,20.93
2023-02-13T16:28:02.154Z,23.13
2023-02-13T16:30:35.997Z,18.43
2023-02-13T16:33:24.461Z,21.47
2023-02-13T16:35:55.147Z,20.43
2023-02-13T16:38:29.456Z,19.63
2023-02-13T16:40:59.083Z,16.40
2023-02-13T16:43:42.705Z,19.73
2023-02-13T16:46:33.282Z,19.70
2023-02-13T16:49:20.589Z,19.00
2023-02-13T16:51:52.088Z,17.33
2023-02-13T16:54:29.089Z,19.33
2023-02-13T16:57:01.846Z,18.97
2023-02-13T16:59:51.450Z,19.07
2023-02-13T17:02:22.283Z,18.57
2023-02-13T17:04:53.680Z,18.33
2023-02-13T17:07:27.463Z,19.70
2023-02-13T17:09:59.564Z,20.33
2023-02-13T17:12:28.877Z,19.33
2023-02-13T17:14:58.732Z,21.27
2023-02-13T17:17:29.707Z,18.03
2023-02-13T17:19:57.916Z,20.53
2023-02-13T17:22:34.202Z,20.17
2023-02-13T17:25:05.969Z,17.60
2023-02-13T17:27:34.157Z,17.90
2023-02-13T17:30:02.335Z,22.83
2023-02-13T17:32:30.653Z,20.43
2023-02-13T17:34:58.714Z,22.90
2023-02-13T17:37:29.952Z,19.17
2023-02-13T17:39:58.087Z,17.93
2023-02-13T17:42:29.242Z,18.50
2023-02-13T17:44:59.391Z,20.00
2023-02-13T17:47:30.194Z,19.80
2023-02-13T17:50:08.535Z,21.50
2023-02-13T17:52:39.389Z,20.90
2023-02-13T17:55:09.577Z,18.83
2023-02-13T17:57:38.991Z,21.20
2023-02-13T18:00:08.708Z,22.73
2023-02-13T18:02:43.496Z,25.33
2023-02-13T18:05:12.333Z,20.93
2023-02-13T18:07:42.528Z,21.90
2023-02-13T18:10:14.826Z,22.10
2023-02-13T18:12:45.070Z,26.00
2023-02-13T18:15:13.627Z,22.90
2023-02-13T18:17:42.203Z,25.93
2023-02-13T18:20:13.039Z,25.43
2023-02-13T18:22:41.451Z,22.00
2023-02-13T18:25:10.720Z,24.90
2023-02-13T18:27:38.914Z,22.77
2023-02-13T18:30:09.898Z,24.17
2023-02-13T18:32:38.201Z,21.77
2023-02-13T18:35:07.332Z,25.20
2023-02-13T18:37:35.433Z,25.33
2023-02-13T18:40:03.817Z,23.33
2023-02-13T18:42:31.868Z,25.10
2023-02-13T18:45:00.006Z,26.80
2023-02-13T18:47:29.581Z,26.13
2023-02-13T18:49:57.670Z,24.63
2023-02-13T18:52:25.711Z,25.27
2023-02-13T18:54:53.966Z,24.10
2023-02-13T18:57:22.186Z,24.20
2023-02-13T18:59:50.201Z,28.47
2023-02-13T19:02:18.600Z,25.83
2023-02-13T19:04:48.087Z,29.27
2023-02-13T19:07:16.379Z,29.43
2023-02-13T19:09:44.511Z,26.63
2023-02-13T19:12:12.648Z,31.47
2023-02-13T19:14:40.933Z,24.50
2023-02-13T19:17:10.196Z,33.10
2023-02-13T19:19:38.557Z,44.90
2023-02-13T19:22:08.048Z,26.53
2023-02-13T19:24:36.105Z,27.17
2023-02-13T19:27:04.282Z,25.90
2023-02-13T19:29:32.485Z,27.87
2023-02-13T19:32:00.642Z,27.60
2023-02-13T19:34:28.665Z,28.80
2023-02-13T19:36:56.767Z,26.43
2023-02-13T19:39:26.398Z,34.43
2023-02-13T19:41:54.652Z,23.73
2023-02-13T19:44:22.792Z,24.63
2023-02-13T19:46:50.952Z,25.70
2023-02-13T19:49:19.457Z,30.57
2023-02-13T19:51:47.714Z,30.70
2023-02-13T19:54:15.716Z,28.07
2023-02-13T19:56:45.245Z,32.87
2023-02-13T19:59:13.860Z,26.87
2023-02-13T20:01:43.478Z,28.53
2023-02-13T20:04:11.902Z,31.50
2023-02-13T20:06:40.333Z,29.87
2023-02-13T20:09:11.956Z,35.20
2023-02-13T20:11:41.318Z,33.73
2023-02-13T20:14:14.969Z,32.17
2023-02-13T20:16:45.570Z,34.47
2023-02-13T20:19:15.013Z,31.47
2023-02-13T20:21:44.031Z,38.20
2023-02-13T20:24:13.553Z,34.73
2023-02-13T20:26:42.669Z,47.83
2023-02-13T20:29:12.199Z,44.00
2023-02-13T20:31:41.428Z,41.40
2023-02-13T20:34:10.051Z,41.13
2023-02-13T20:36:38.378Z,37.60
2023-02-13T20:39:08.603Z,31.10
2023-02-13T20:41:38.278Z,36.30
2023-02-13T20:44:08.330Z,43.60
2023-02-13T20:46:39.769Z,41.33
2023-02-13T20:49:09.029Z,36.10
2023-02-13T20:51:37.162Z,43.83
2023-02-13T20:54:05.864Z,38.83
2023-02-13T20:56:33.927Z,44.27
2023-02-13T20:59:02.576Z,40.57
2023-02-13T21:01:33.255Z,44.00
2023-02-13T21:04:03.504Z,44.30
2023-02-13T21:06:33.828Z,48.43
2023-02-13T21:09:02.561Z,46.50
2023-02-13T21:11:30.747Z,55.17
2023-02-13T21:13:59.168Z,39.37
2023-02-13T21:16:29.617Z,46.07
2023-02-13T21:18:59.270Z,45.13
2023-02-13T21:21:31.432Z,52.40
2023-02-13T21:24:01.970Z,56.60
2023-02-13T21:26:30.479Z,41.43
2023-02-13T21:28:59.668Z,47.90
2023-02-13T21:31:30.416Z,45.40
2023-02-13T21:34:00.378Z,40.23
2023-02-13T21:36:30.162Z,32.10
2023-02-13T21:38:58.272Z,41.73
2023-02-13T21:41:26.730Z,45.63
2023-02-13T21:43:55.415Z,45.13
2023-02-13T21:46:25.730Z,62.80
2023-02-13T21:48:55.406Z,30.00
2023-02-13T21:51:24.573Z,33.97
2023-02-13T21:53:54.921Z,47.30
2023-02-13T21:56:25.231Z,61.07
2023-02-13T21:58:54.422Z,53.37
2023-02-13T22:01:26.954Z,48.63
2023-02-13T22:03:59.171Z,47.57
2023-02-13T22:06:29.750Z,42.70
2023-02-13T22:09:00.573Z,40.57
2023-02-13T22:11:29.097Z,43.43
2023-02-13T22:13:59.974Z,52.97
2023-02-13T22:16:28.501Z,33.80
2023-02-13T22:18:56.858Z,52.73
2023-02-13T22:21:26.731Z,41.03
2023-02-13T22:23:55.049Z,39.07
2023-02-13T22:26:26.305Z,49.87
2023-02-13T22:28:54.958Z,42.03
2023-02-13T22:31:25.831Z,37.00
2023-02-13T22:34:04.427Z,32.50
2023-02-13T22:36:34.055Z,45.73
2023-02-13T22:39:02.235Z,46.03
2023-02-13T22:41:32.035Z,39.43
2023-02-13T22:44:00.081Z,52.73
2023-02-13T22:46:30.366Z,31.77
2023-02-13T22:48:58.836Z,44.10
2023-02-13T22:51:30.176Z,39.33
2023-02-13T22:53:59.400Z,36.93
2023-02-13T22:56:28.980Z,24.67
2023-02-13T22:58:58.601Z,35.40
2023-02-13T23:01:28.266Z,32.33
2023-02-13T23:04:01.065Z,35.33
2023-02-13T23:06:29.412Z,37.33
2023-02-13T23:08:58.321Z,44.57
2023-02-13T23:11:45.972Z,61.53
2023-02-13T23:14:15.650Z,53.87
2023-02-13T23:17:01.601Z,45.23
2023-02-13T23:19:34.834Z,39.93
2023-02-13T23:22:02.975Z,37.87
2023-02-13T23:24:31.401Z,30.67
2023-02-13T23:26:59.759Z,72.30
2023-02-13T23:29:29.273Z,44.63
2023-02-13T23:31:57.536Z,50.67
2023-02-13T23:34:25.822Z,37.63
2023-02-13T23:36:53.944Z,35.23
2023-02-13T23:39:24.178Z,45.77
2023-02-13T23:41:52.330Z,35.33
2023-02-13T23:44:20.565Z,33.43
2023-02-13T23:46:49.938Z,40.20
2023-02-13T23:49:18.375Z,38.50
2023-02-13T23:51:46.434Z,32.33
2023-02-13T23:54:18.435Z,31.17
2023-02-13T23:56:46.800Z,30.40
2023-02-13T23:59:16.378Z,35.03
